Terminal Aerodrome Forecast
Issued by NWS Memphis, TN

Home | Current Version | Previous Version | Text Only | Print | Product List | Glossary On
Versions: 1 2 3 4 5 6 7 8 9 10 11 12 13 14 15 16 17 18 19 20 21 22 23 24 25 26 27 28 29 30 31 32
282
FTUS44 KMEG 231734
TAFMEM
TAF
KMEM 231734Z 2318/2418 19012G18KT P6SM FEW040 SCT250
     FM240000 17010KT P6SM SCT250
     FM240500 18013G19KT P6SM SCT250
     FM240800 19016G22KT P6SM FEW250 WS020/20050KT
     FM241300 20017G23KT P6SM FEW250=

USA.gov is the U.S. government's official web portal to all federal, state and local government web resources and services.